createdAt,value
2017-07-08T00:00:16.273Z,71.6
2017-07-08T00:00:46.151Z,71.6
2017-07-08T00:01:16.539Z,71.5
2017-07-08T00:01:46.789Z,71.5
2017-07-08T00:02:17.158Z,71.5
2017-07-08T00:03:14.435Z,71.5
2017-07-08T00:04:13.640Z,71.6
2017-07-08T00:05:12.333Z,71.7
2017-07-08T00:06:12.147Z,71.7
2017-07-08T00:07:11.597Z,71.8
2017-07-08T00:08:10.653Z,71.8
2017-07-08T00:09:10.226Z,71.8
2017-07-08T00:10:09.675Z,71.7
2017-07-08T00:11:09.181Z,71.6
2017-07-08T00:12:08.244Z,71.8
2017-07-08T00:13:07.442Z,71.8
2017-07-08T00:14:07.262Z,71.9
2017-07-08T00:15:06.581Z,71.8
2017-07-08T00:16:05.767Z,71.9
2017-07-08T00:17:04.961Z,71.9
2017-07-08T00:18:04.415Z,72
2017-07-08T00:19:03.607Z,72.1
2017-07-08T00:19:34.229Z,72.1
2017-07-08T00:20:04.609Z,72.3
2017-07-08T00:20:35.241Z,72.3
2017-07-08T00:22:02.239Z,72.4
2017-07-08T00:23:01.313Z,72.5
2017-07-08T00:24:00.378Z,72.5
2017-07-08T00:25:00.033Z,72.4
2017-07-08T00:25:59.852Z,72.4
2017-07-08T00:26:59.042Z,72.5
2017-07-08T00:27:58.498Z,72.7
2017-07-08T00:28:58.076Z,72.7
2017-07-08T00:29:56.893Z,72.8
2017-07-08T00:30:56.844Z,72.9
2017-07-08T00:31:55.777Z,72.8
2017-07-08T00:32:55.240Z,73
2017-07-08T00:33:54.960Z,73.2
2017-07-08T00:34:54.036Z,73.2
2017-07-08T00:35:53.610Z,73.1
2017-07-08T00:36:52.686Z,73.4
2017-07-08T00:37:52.007Z,73.3
2017-07-08T00:38:51.456Z,73.4
2017-07-08T00:39:51.026Z,73.4
2017-07-08T00:40:50.477Z,73.5
2017-07-08T00:41:49.671Z,73.5
2017-07-08T00:42:19.947Z,73.5
2017-07-08T00:42:50.325Z,73.5
2017-07-08T00:43:21.328Z,73.5
2017-07-08T00:44:47.945Z,73.5
2017-07-08T00:45:47.098Z,73.6
2017-07-08T00:46:46.291Z,73.4
2017-07-08T00:47:45.732Z,73.5
2017-07-08T00:48:45.190Z,73.4
2017-07-08T00:49:44.762Z,73.6
2017-07-08T00:50:44.209Z,73.5
2017-07-08T00:51:43.318Z,73.6
2017-07-08T00:52:42.620Z,73.5
2017-07-08T00:53:42.439Z,73.6
2017-07-08T00:54:41.258Z,73.5
2017-07-08T00:55:41.228Z,73.6
2017-07-08T00:56:40.426Z,73.7
2017-07-08T00:57:39.246Z,73.7
2017-07-08T00:58:39.001Z,73.7
2017-07-08T00:59:38.318Z,73.7
2017-07-08T01:00:37.506Z,73.7
2017-07-08T01:01:37.075Z,73.7
2017-07-08T01:02:36.512Z,73.9
2017-07-08T01:03:35.832Z,73.9
2017-07-08T01:04:34.910Z,73.9
2017-07-08T01:05:34.485Z,74.1
2017-07-08T01:06:33.934Z,74
2017-07-08T01:07:33.380Z,74
2017-07-08T01:08:32.603Z,74
2017-07-08T01:09:32.049Z,74.2
2017-07-08T01:10:32.054Z,74.3
2017-07-08T01:11:31.000Z,74.2
2017-07-08T01:13:29.456Z,74.2
2017-07-08T01:14:28.655Z,74.2
2017-07-08T01:15:28.473Z,74.4
2017-07-08T01:16:27.410Z,74.4
2017-07-08T01:17:26.724Z,74.5
2017-07-08T01:18:26.168Z,74.5
2017-07-08T01:19:26.438Z,74.5
2017-07-08T01:20:25.384Z,74.8
2017-07-08T01:21:24.120Z,74.7
2017-07-08T01:22:23.671Z,74.8
2017-07-08T01:23:22.990Z,74.9
2017-07-08T01:24:22.570Z,74.9
2017-07-08T01:25:22.286Z,75
2017-07-08T01:26:21.117Z,75
2017-07-08T01:27:20.374Z,75
2017-07-08T01:27:51.007Z,75
2017-07-08T01:28:21.633Z,75
2017-07-08T01:28:52.004Z,75
2017-07-08T01:30:18.755Z,75.1
2017-07-08T01:31:18.199Z,75.1
2017-07-08T01:32:17.641Z,75.2
2017-07-08T01:33:16.837Z,75.2
2017-07-08T01:34:16.221Z,75
2017-07-08T01:35:15.677Z,75.2
2017-07-08T01:36:15.000Z,75.2
2017-07-08T01:37:14.190Z,75.2
2017-07-08T01:38:13.639Z,75.2
2017-07-08T01:39:12.968Z,75.3
2017-07-08T01:40:12.654Z,75.2
2017-07-08T01:41:12.103Z,75.3
2017-07-08T01:42:10.924Z,75.4
2017-07-08T01:43:10.370Z,75.5
2017-07-08T01:44:09.941Z,75.5
2017-07-08T01:45:09.260Z,75.4
2017-07-08T01:46:08.705Z,75.5
2017-07-08T01:47:08.029Z,75.7
2017-07-08T01:48:07.725Z,75.7
2017-07-08T01:49:06.534Z,75.8
2017-07-08T01:50:06.359Z,75.8
2017-07-08T01:51:05.049Z,75.8
2017-07-08T01:52:04.620Z,75.9
2017-07-08T01:53:04.058Z,75.7
2017-07-08T01:54:03.247Z,75.7
2017-07-08T01:55:02.941Z,75.8
2017-07-08T01:56:02.001Z,75.9
2017-07-08T01:57:01.830Z,76
2017-07-08T01:58:01.144Z,76.1
2017-07-08T01:59:00.332Z,76.1
2017-07-08T01:59:59.780Z,76.1
2017-07-08T02:00:59.109Z,76.1
2017-07-08T02:01:58.559Z,76.2
2017-07-08T02:02:57.761Z,76.2
2017-07-08T02:03:57.083Z,76.4
2017-07-08T02:04:56.413Z,76.4
2017-07-08T02:05:56.120Z,76.3
2017-07-08T02:06:55.318Z,76.4
2017-07-08T02:07:54.387Z,76.4
2017-07-08T02:08:24.758Z,76.4
2017-07-08T02:08:55.257Z,76.4
2017-07-08T02:09:25.692Z,76.4
2017-07-08T02:09:56.897Z,76.5
2017-07-08T02:10:26.773Z,76.5
2017-07-08T02:11:52.013Z,76.5
2017-07-08T02:12:51.335Z,76.6
2017-07-08T02:13:51.031Z,76.7
2017-07-08T02:14:50.214Z,76.7
2017-07-08T02:15:49.281Z,76.7
2017-07-08T02:16:48.594Z,76.7
2017-07-08T02:17:47.790Z,76.8
2017-07-08T02:18:47.733Z,76.8
2017-07-08T02:19:47.043Z,76.7
2017-07-08T02:20:17.533Z,76.7
2017-07-08T02:20:48.279Z,76.7
2017-07-08T02:21:18.658Z,76.7
2017-07-08T02:21:49.029Z,76.9
2017-07-08T02:22:19.277Z,76.9
2017-07-08T02:24:44.606Z,77
2017-07-08T02:25:43.044Z,77
2017-07-08T02:26:42.377Z,77.2
2017-07-08T02:27:41.698Z,77.3
2017-07-08T02:28:40.895Z,77.3
2017-07-08T02:29:40.205Z,77.3
2017-07-08T02:30:39.531Z,77.4
2017-07-08T02:31:38.841Z,77.3
2017-07-08T02:32:38.659Z,77.4
2017-07-08T02:33:37.860Z,77.5
2017-07-08T02:34:37.180Z,77.5
2017-07-08T02:35:36.254Z,77.4
2017-07-08T02:36:35.970Z,77.4
2017-07-08T02:37:35.285Z,77.4
2017-07-08T02:38:34.737Z,77.5
2017-07-08T02:39:33.927Z,77.6
2017-07-08T02:40:33.253Z,77.5
2017-07-08T02:41:32.444Z,77.5
2017-07-08T02:42:32.031Z,77.5
2017-07-08T02:43:31.739Z,77.6
2017-07-08T02:44:30.811Z,77.7
2017-07-08T02:45:30.131Z,77.6
2017-07-08T02:46:29.453Z,77.6
2017-07-08T02:47:28.898Z,77.6
2017-07-08T02:48:28.483Z,77.6
2017-07-08T02:49:27.572Z,77.8
2017-07-08T02:50:26.885Z,77.7
2017-07-08T02:51:26.084Z,77.8
2017-07-08T02:52:25.399Z,77.9
2017-07-08T02:53:24.833Z,77.9
2017-07-08T02:54:24.410Z,77.9
2017-07-08T02:55:23.488Z,77.9
2017-07-08T02:56:22.713Z,78
2017-07-08T02:57:22.284Z,78
2017-07-08T02:59:21.245Z,78.2
2017-07-08T03:00:20.689Z,78.2
2017-07-08T03:01:19.759Z,78.3
2017-07-08T03:02:19.082Z,78.2
2017-07-08T03:02:49.207Z,78.2
2017-07-08T03:03:19.850Z,78.2
2017-07-08T03:04:17.795Z,78.2
2017-07-08T03:05:17.109Z,78.4
2017-07-08T03:06:16.298Z,78.4
2017-07-08T03:07:15.626Z,78.4
2017-07-08T03:08:15.459Z,78.4
2017-07-08T03:09:15.038Z,78.5
2017-07-08T03:10:13.996Z,78.4
2017-07-08T03:11:13.193Z,78.4
2017-07-08T03:12:12.648Z,78.4
2017-07-08T03:13:11.956Z,78.5
2017-07-08T03:14:11.274Z,78.4
2017-07-08T03:16:10.818Z,78.4
2017-07-08T03:17:09.374Z,78.4
2017-07-08T03:18:08.821Z,78.4
2017-07-08T03:19:08.414Z,78.4
2017-07-08T03:20:07.487Z,78.4
2017-07-08T03:21:06.431Z,78.4
2017-07-08T03:22:05.874Z,78.4
2017-07-08T03:23:05.690Z,78.4
2017-07-08T03:24:04.881Z,78.4
2017-07-08T03:25:04.333Z,78.3
2017-07-08T03:26:03.531Z,78.3
2017-07-08T03:27:03.229Z,78.4
2017-07-08T03:28:02.288Z,78.5
2017-07-08T03:29:01.749Z,78.5
2017-07-08T03:30:00.823Z,78.7
2017-07-08T03:31:00.270Z,78.6
2017-07-08T03:31:59.719Z,78.6
2017-07-08T03:32:59.243Z,78.6
2017-07-08T03:33:58.892Z,78.6
2017-07-08T03:34:57.565Z,78.6
2017-07-08T03:35:56.889Z,78.8
2017-07-08T03:36:56.838Z,78.7
2017-07-08T03:37:56.029Z,78.7
2017-07-08T03:38:55.287Z,78.7
2017-07-08T03:39:54.595Z,78.7
2017-07-08T03:40:53.800Z,78.7
2017-07-08T03:41:53.103Z,78.8
2017-07-08T03:42:52.300Z,78.7
2017-07-08T03:43:51.876Z,78.7
2017-07-08T03:44:51.453Z,78.7
2017-07-08T03:45:50.513Z,78.7
2017-07-08T03:46:49.841Z,78.7
2017-07-08T03:47:49.162Z,78.6
2017-07-08T03:48:48.475Z,78.6
2017-07-08T03:49:47.930Z,78.5
2017-07-08T03:50:47.637Z,78.5
2017-07-08T03:51:46.455Z,78.4
2017-07-08T03:52:45.898Z,78.3
2017-07-08T03:53:44.967Z,78.3
2017-07-08T03:54:44.791Z,78.2
2017-07-08T03:55:43.860Z,78.2
2017-07-08T03:56:43.448Z,78.2
2017-07-08T03:57:42.635Z,78.2
2017-07-08T03:58:42.328Z,78.3
2017-07-08T03:59:41.142Z,78.2
2017-07-08T04:00:40.717Z,78.2
2017-07-08T04:01:39.912Z,78.2
2017-07-08T04:02:39.356Z,78.2
2017-07-08T04:03:38.806Z,78.3
2017-07-08T04:04:38.382Z,78.3
2017-07-08T04:05:37.329Z,78.2
2017-07-08T04:06:36.528Z,78.1
2017-07-08T04:07:35.985Z,78.1
2017-07-08T04:08:35.425Z,78
2017-07-08T04:09:35.000Z,77.7
2017-07-08T04:10:34.445Z,77.4
2017-07-08T04:11:33.643Z,77.1
2017-07-08T04:12:32.827Z,76.7
2017-07-08T04:13:32.270Z,76.3
2017-07-08T04:14:31.713Z,76.3
2017-07-08T04:15:30.784Z,76.1
2017-07-08T04:16:30.486Z,75.7
2017-07-08T04:17:29.299Z,75.4
2017-07-08T04:18:29.259Z,75.1
2017-07-08T04:19:28.211Z,75
2017-07-08T04:20:27.735Z,74.8
2017-07-08T04:21:27.061Z,74.6
2017-07-08T04:22:26.142Z,74.5
2017-07-08T04:23:25.369Z,74.2
2017-07-08T04:24:25.061Z,74.1
2017-07-08T04:25:24.255Z,74.1
2017-07-08T04:27:23.207Z,73.8
2017-07-08T04:28:22.524Z,73.4
2017-07-08T04:29:21.592Z,73.1
2017-07-08T04:29:52.784Z,73.1
2017-07-08T04:31:20.305Z,72.9
2017-07-08T04:32:19.492Z,72.9
2017-07-08T04:33:19.076Z,72.8
2017-07-08T04:34:19.219Z,72.8
2017-07-08T04:35:18.031Z,72.7
2017-07-08T04:36:17.481Z,72.8
2017-07-08T04:37:16.686Z,72.9
2017-07-08T04:38:15.999Z,72.8
2017-07-08T04:39:15.439Z,72.6
2017-07-08T04:40:14.760Z,72.6
2017-07-08T04:41:13.958Z,72.7
2017-07-08T04:43:12.803Z,72.3
2017-07-08T04:44:12.247Z,72.3
2017-07-08T04:45:11.375Z,72.1
2017-07-08T04:46:10.710Z,71.9
2017-07-08T04:47:10.031Z,71.6
2017-07-08T04:48:09.468Z,71.4
2017-07-08T04:49:08.539Z,71.4
2017-07-08T04:50:08.117Z,71.4
2017-07-08T04:51:07.814Z,70.9
2017-07-08T04:52:06.879Z,70.8
2017-07-08T04:53:06.196Z,70.6
2017-07-08T04:54:05.397Z,70.5
2017-07-08T04:55:04.975Z,70.5
2017-07-08T04:56:04.287Z,70.5
2017-07-08T04:58:02.886Z,70.2
2017-07-08T04:59:01.961Z,69.9
2017-07-08T05:00:01.786Z,69.5
2017-07-08T05:01:00.865Z,69
2017-07-08T05:02:00.315Z,68.4
2017-07-08T05:02:59.255Z,68.2
2017-07-08T05:03:59.066Z,67.8
2017-07-08T05:04:58.125Z,67.5
2017-07-08T05:05:57.950Z,67.5
2017-07-08T05:06:57.053Z,67.5
2017-07-08T05:07:56.702Z,67.2
2017-07-08T05:08:55.511Z,66.7
2017-07-08T05:09:55.206Z,67.1
2017-07-08T05:10:54.663Z,67
2017-07-08T05:11:54.110Z,67.4
2017-07-08T05:12:53.178Z,67.6
2017-07-08T05:13:52.504Z,67.9
2017-07-08T05:14:52.211Z,68
2017-07-08T05:15:51.036Z,68.1
2017-07-08T05:16:50.606Z,68.3
2017-07-08T05:17:49.920Z,68.3
2017-07-08T05:18:49.238Z,68.6
2017-07-08T05:19:19.867Z,68.6
2017-07-08T05:19:50.353Z,68.8
2017-07-08T05:20:48.028Z,68.8
2017-07-08T05:21:47.357Z,68.9
2017-07-08T05:22:46.674Z,69
2017-07-08T05:23:45.866Z,69
2017-07-08T05:24:45.686Z,69
2017-07-08T05:25:44.627Z,68.4
2017-07-08T05:26:44.070Z,67.8
2017-07-08T05:27:43.510Z,67.5
2017-07-08T05:28:42.950Z,67
2017-07-08T05:29:42.261Z,66.6
2017-07-08T05:30:41.451Z,65.2
2017-07-08T05:31:40.895Z,65.1
2017-07-08T05:32:40.085Z,65.1
2017-07-08T05:33:39.658Z,65
2017-07-08T05:34:39.411Z,64.4
2017-07-08T05:35:38.229Z,63.8
2017-07-08T05:36:37.540Z,63.6
2017-07-08T05:37:37.634Z,63.2
2017-07-08T05:38:36.711Z,63.9
2017-07-08T05:39:35.916Z,64.1
2017-07-08T05:40:06.035Z,64.1
2017-07-08T05:40:36.758Z,64.1
2017-07-08T05:41:34.562Z,64.1
2017-07-08T05:42:33.890Z,64.1
2017-07-08T05:43:33.347Z,63.3
2017-07-08T05:44:32.920Z,63
2017-07-08T05:45:32.300Z,62.7
2017-07-08T05:46:31.243Z,62.5
2017-07-08T05:47:30.814Z,62.5
2017-07-08T05:48:30.008Z,62
2017-07-08T05:49:29.463Z,61.7
2017-07-08T05:50:28.789Z,61
2017-07-08T05:50:59.557Z,61
2017-07-08T05:51:30.057Z,61.4
2017-07-08T05:52:00.677Z,61.4
2017-07-08T05:53:26.924Z,60.9
2017-07-08T05:54:26.749Z,60.5
2017-07-08T05:55:25.445Z,60.4
2017-07-08T05:56:25.272Z,60.1
2017-07-08T05:57:24.580Z,59.8
2017-07-08T05:58:23.894Z,59.8
2017-07-08T05:59:23.211Z,59.8
2017-07-08T06:00:22.910Z,59.7
2017-07-08T06:01:22.267Z,58.7
2017-07-08T06:02:21.080Z,59
2017-07-08T06:03:21.030Z,58.7
2017-07-08T06:05:19.504Z,59
2017-07-08T06:06:18.712Z,59.2
2017-07-08T06:07:18.156Z,59.5
2017-07-08T06:08:17.476Z,60
2017-07-08T06:09:17.315Z,59.8
2017-07-08T06:10:16.910Z,59.3
2017-07-08T06:11:15.856Z,58.6
2017-07-08T06:12:15.183Z,58.2
2017-07-08T06:13:14.886Z,58.2
2017-07-08T06:14:13.702Z,57.7
2017-07-08T06:15:13.530Z,57.8
2017-07-08T06:17:12.496Z,58.3
2017-07-08T06:18:11.305Z,58.3
2017-07-08T06:19:11.008Z,57.6
2017-07-08T06:20:10.395Z,57
2017-07-08T06:22:08.798Z,56.7
2017-07-08T06:23:08.239Z,56
2017-07-08T06:24:08.064Z,55.9
2017-07-08T06:25:07.513Z,55.4
2017-07-08T06:26:06.581Z,55.5
2017-07-08T06:27:06.151Z,55.4
2017-07-08T06:28:05.468Z,55
2017-07-08T06:29:04.792Z,54.8
2017-07-08T06:30:04.097Z,54.8
2017-07-08T06:31:03.539Z,54.9
2017-07-08T06:32:02.600Z,54.9
2017-07-08T06:33:02.054Z,54.9
2017-07-08T06:34:01.498Z,54.9
2017-07-08T06:35:01.330Z,55.3
2017-07-08T06:36:59.905Z,55.5
2017-07-08T06:37:59.237Z,55.5
2017-07-08T06:38:58.684Z,55.4
2017-07-08T06:39:58.266Z,55.4
2017-07-08T06:40:57.591Z,55.4
2017-07-08T06:41:57.285Z,56
2017-07-08T06:42:56.230Z,56
2017-07-08T06:43:55.423Z,55.7
2017-07-08T06:44:55.500Z,55.8
2017-07-08T06:45:54.940Z,55.4
2017-07-08T06:46:53.871Z,55.9
2017-07-08T06:47:53.440Z,55.1
2017-07-08T06:48:52.764Z,54.8
2017-07-08T06:49:51.957Z,54.8
2017-07-08T06:51:50.912Z,54.2
2017-07-08T06:52:50.364Z,54.4
2017-07-08T06:53:49.565Z,54.8
2017-07-08T06:54:49.389Z,54.8
2017-07-08T06:55:48.573Z,55.2
2017-07-08T06:56:47.896Z,55.1
2017-07-08T06:57:47.555Z,55.1
2017-07-08T06:58:46.895Z,55.6
2017-07-08T06:59:46.229Z,55.7
2017-07-08T07:00:45.813Z,56
2017-07-08T07:01:44.880Z,56.7
2017-07-08T07:02:44.442Z,56.9
2017-07-08T07:03:44.828Z,57
2017-07-08T07:04:43.017Z,57.1
2017-07-08T07:05:42.589Z,56.9
2017-07-08T07:06:42.535Z,57.5
2017-07-08T07:07:41.479Z,57.8
2017-07-08T07:08:41.044Z,57.8
2017-07-08T07:09:40.113Z,57.8
2017-07-08T07:10:39.797Z,58.3
2017-07-08T07:11:39.899Z,58.1
2017-07-08T07:12:38.584Z,57.9
2017-07-08T07:13:38.026Z,58
2017-07-08T07:14:37.475Z,57.5
2017-07-08T07:15:37.040Z,58
2017-07-08T07:16:36.618Z,57.6
2017-07-08T07:17:35.460Z,57.7
2017-07-08T07:18:35.173Z,57.7
2017-07-08T07:19:34.504Z,57.8
2017-07-08T07:20:33.701Z,57.8
2017-07-08T07:21:33.155Z,57.2
2017-07-08T07:22:32.588Z,56.7
2017-07-08T07:23:32.027Z,56.1
2017-07-08T07:24:31.485Z,56.1
2017-07-08T07:25:30.683Z,55
2017-07-08T07:26:30.265Z,55
2017-07-08T07:27:30.087Z,54.3
2017-07-08T07:28:29.117Z,53.4
2017-07-08T07:29:28.443Z,54.1
2017-07-08T07:30:28.206Z,53.9
2017-07-08T07:31:27.286Z,54.4
2017-07-08T07:32:26.487Z,54.5
2017-07-08T07:33:26.056Z,54.7
2017-07-08T07:34:25.784Z,55.2
2017-07-08T07:35:24.978Z,54.9
2017-07-08T07:36:24.554Z,54.4
2017-07-08T07:37:23.622Z,54.2
2017-07-08T07:38:23.439Z,54.2
2017-07-08T07:38:53.813Z,54.2
2017-07-08T07:39:24.323Z,54.3
2017-07-08T07:39:55.080Z,54.3
2017-07-08T07:40:25.587Z,54.3
2017-07-08T07:40:56.346Z,54.3
2017-07-08T07:41:26.858Z,53.9
2017-07-08T07:41:57.062Z,53.9
2017-07-08T07:44:20.068Z,54.1
2017-07-08T07:46:18.584Z,54.5
2017-07-08T07:47:18.411Z,54.9
2017-07-08T07:48:17.602Z,54.8
2017-07-08T07:49:17.183Z,55.1
2017-07-08T07:50:16.379Z,55.4
2017-07-08T07:51:15.682Z,55.5
2017-07-08T07:52:15.513Z,55.6
2017-07-08T07:52:46.146Z,55.6
2017-07-08T07:53:16.655Z,55.6
2017-07-08T07:53:47.407Z,55.6
2017-07-08T07:54:17.799Z,55.6
2017-07-08T07:55:13.345Z,55.5
2017-07-08T07:56:13.105Z,55.4
2017-07-08T07:57:12.215Z,55.1
2017-07-08T07:58:11.662Z,55.5
2017-07-08T07:59:11.232Z,55.8
2017-07-08T07:59:41.996Z,55.8
2017-07-08T08:00:12.249Z,55.4
2017-07-08T08:01:09.934Z,55.4
2017-07-08T08:02:09.324Z,55.4
2017-07-08T08:03:08.530Z,56.2
2017-07-08T08:04:08.223Z,56.5
2017-07-08T08:05:07.986Z,56.7
2017-07-08T08:06:06.871Z,56.3
2017-07-08T08:07:06.430Z,55.4
2017-07-08T08:08:05.872Z,54.3
2017-07-08T08:09:05.365Z,54.3
2017-07-08T08:10:05.025Z,53.8
2017-07-08T08:10:35.151Z,53.8
2017-07-08T08:11:05.474Z,53.1
2017-07-08T08:11:35.488Z,53.1
2017-07-08T08:12:06.248Z,53.2
2017-07-08T08:12:36.127Z,53.2
2017-07-08T08:14:02.875Z,52.7
2017-07-08T08:16:01.324Z,52.7
2017-07-08T08:17:00.632Z,52.8
2017-07-08T08:18:00.264Z,52.8
2017-07-08T08:18:59.581Z,52.8
2017-07-08T08:19:59.035Z,52.7
2017-07-08T08:20:58.218Z,52.6
2017-07-08T08:21:58.035Z,52.5
2017-07-08T08:22:57.087Z,53.2
2017-07-08T08:23:56.652Z,52.8
2017-07-08T08:24:56.474Z,51.9
2017-07-08T08:25:55.663Z,52.1
2017-07-08T08:26:54.989Z,52.9
2017-07-08T08:27:54.814Z,52.9
2017-07-08T08:28:53.894Z,52.7
2017-07-08T08:29:53.601Z,52.7
2017-07-08T08:30:52.929Z,52.8
2017-07-08T08:31:52.378Z,53.5
2017-07-08T08:32:51.449Z,53.5
2017-07-08T08:33:51.414Z,53.2
2017-07-08T08:34:50.733Z,51.7
2017-07-08T08:35:50.047Z,51.6
2017-07-08T08:36:49.499Z,51.6
2017-07-08T08:37:48.823Z,51
2017-07-08T08:38:47.900Z,49.9
2017-07-08T08:39:47.596Z,50.4
2017-07-08T08:40:47.177Z,51
2017-07-08T08:41:46.773Z,51.7
2017-07-08T08:42:46.342Z,51.8
2017-07-08T08:43:45.544Z,52.2
2017-07-08T08:44:45.259Z,52.1
2017-07-08T08:45:44.069Z,52.5
2017-07-08T08:46:43.762Z,52.4
2017-07-08T08:47:43.331Z,51.5
2017-07-08T08:48:42.651Z,52
2017-07-08T08:49:42.080Z,52.4
2017-07-08T08:50:41.516Z,51.7
2017-07-08T08:51:40.960Z,51
2017-07-08T08:52:40.279Z,51.4
2017-07-08T08:53:39.860Z,51.4
2017-07-08T08:54:39.299Z,51.4
2017-07-08T08:55:38.621Z,51.8
2017-07-08T08:56:38.195Z,52.1
2017-07-08T08:57:37.649Z,52.4
2017-07-08T08:58:36.900Z,52.5
2017-07-08T08:59:36.595Z,51.9
2017-07-08T09:00:35.801Z,52.2
2017-07-08T09:01:35.622Z,51.7
2017-07-08T09:02:34.942Z,51.5
2017-07-08T09:04:33.666Z,52
2017-07-08T09:05:33.360Z,52.3
2017-07-08T09:06:32.820Z,52.1
2017-07-08T09:07:31.760Z,52.2
2017-07-08T09:08:31.589Z,51.8
2017-07-08T09:09:01.849Z,51.8
2017-07-08T09:09:32.108Z,51.8
2017-07-08T09:10:30.554Z,51.1
2017-07-08T09:11:29.998Z,51.1
2017-07-08T09:12:29.185Z,51.1
2017-07-08T09:13:28.639Z,51
2017-07-08T09:14:28.205Z,51.2
2017-07-08T09:15:27.657Z,52
2017-07-08T09:16:27.125Z,52
2017-07-08T09:17:26.193Z,52.5
2017-07-08T09:18:26.392Z,52.7
2017-07-08T09:19:25.219Z,52.9
2017-07-08T09:20:25.045Z,52.9
2017-07-08T09:21:24.115Z,52.8
2017-07-08T09:22:23.674Z,52.5
2017-07-08T09:23:22.996Z,52.8
2017-07-08T09:24:22.933Z,51.7
2017-07-08T09:25:22.001Z,51.6
2017-07-08T09:26:21.457Z,51.8
2017-07-08T09:27:20.904Z,52
2017-07-08T09:28:20.722Z,51.7
2017-07-08T09:29:20.176Z,51.7
2017-07-08T09:30:19.371Z,51.6
2017-07-08T09:31:18.565Z,51.7
2017-07-08T09:32:18.149Z,49.8
2017-07-08T09:34:17.292Z,49.8
2017-07-08T09:35:16.485Z,49.9
2017-07-08T09:36:15.807Z,49.8
2017-07-08T09:37:15.497Z,50.3
2017-07-08T09:38:14.565Z,50.8
2017-07-08T09:39:14.261Z,51
2017-07-08T09:40:13.955Z,51.3
2017-07-08T09:41:13.188Z,51.3
2017-07-08T09:42:12.640Z,50.6
2017-07-08T09:43:12.082Z,50.8
2017-07-08T09:44:11.906Z,51
2017-07-08T09:45:11.340Z,50.9
2017-07-08T09:46:10.804Z,50.9
2017-07-08T09:47:09.990Z,50.9
2017-07-08T09:48:09.726Z,50
2017-07-08T09:49:09.050Z,49.8
2017-07-08T09:50:08.370Z,49.9
2017-07-08T09:51:07.563Z,49
2017-07-08T09:52:07.394Z,49
2017-07-08T09:53:06.963Z,48.8
2017-07-08T09:54:06.032Z,48.5
2017-07-08T09:55:05.723Z,48.6
2017-07-08T09:56:04.787Z,48.9
2017-07-08T09:57:04.614Z,49.2
2017-07-08T09:58:03.932Z,48.9
2017-07-08T09:59:03.505Z,48.3
2017-07-08T10:00:02.770Z,48
2017-07-08T10:01:02.452Z,48.2
2017-07-08T10:01:32.940Z,48.2
2017-07-08T10:02:03.749Z,47.4
2017-07-08T10:02:34.364Z,47.4
2017-07-08T10:03:04.872Z,47.7
2017-07-08T10:03:35.496Z,47.7
2017-07-08T10:05:00.244Z,47.7
2017-07-08T10:05:59.813Z,48.6
2017-07-08T10:06:59.003Z,48.9
2017-07-08T10:07:58.972Z,49.2
2017-07-08T10:08:57.792Z,48.9
2017-07-08T10:09:57.493Z,49
2017-07-08T10:10:57.073Z,49.3
2017-07-08T10:11:56.409Z,49.3
2017-07-08T10:12:55.859Z,49.8
2017-07-08T10:13:55.622Z,49.9
2017-07-08T10:14:25.745Z,49.9
2017-07-08T10:14:56.273Z,50.1
2017-07-08T10:15:54.606Z,49.6
2017-07-08T10:16:53.932Z,49.9
2017-07-08T10:18:52.773Z,50.5
2017-07-08T10:19:52.303Z,50.7
2017-07-08T10:21:51.732Z,50.9
2017-07-08T10:22:50.678Z,50.9
2017-07-08T10:23:49.878Z,58.7
2017-07-08T10:24:49.445Z,64
2017-07-08T10:25:48.619Z,65.7
2017-07-08T10:26:48.310Z,72.1
2017-07-08T10:27:47.767Z,73.8
2017-07-08T10:28:47.463Z,76.2
2017-07-08T10:29:46.673Z,77.1
2017-07-08T10:30:45.867Z,77.1
2017-07-08T10:31:45.709Z,79.1
2017-07-08T10:32:45.023Z,80.2
2017-07-08T10:33:44.223Z,80.9
2017-07-08T10:35:43.198Z,80.8
2017-07-08T10:36:42.891Z,80.5
2017-07-08T10:37:42.220Z,82.4
2017-07-08T10:38:41.410Z,82.9
2017-07-08T10:39:40.977Z,82.9
2017-07-08T10:40:40.412Z,82.9
2017-07-08T10:41:39.966Z,82.5
2017-07-08T10:42:39.280Z,82.7
2017-07-08T10:43:38.977Z,82.6
2017-07-08T10:44:38.169Z,83.8
2017-07-08T10:45:37.487Z,83.8
2017-07-08T10:47:36.208Z,84.4
2017-07-08T10:48:36.033Z,84.8
2017-07-08T10:49:35.349Z,84.7
2017-07-08T10:50:34.936Z,84.4
2017-07-08T10:51:33.753Z,84.6
2017-07-08T10:52:33.451Z,84.5
2017-07-08T10:53:33.036Z,84.6
2017-07-08T10:54:32.283Z,84.3
2017-07-08T10:55:32.060Z,84.5
2017-07-08T10:56:31.247Z,85
2017-07-08T10:57:30.827Z,85
2017-07-08T10:58:30.140Z,85
2017-07-08T10:59:29.334Z,84.2
2017-07-08T11:00:28.919Z,84.6
2017-07-08T11:01:28.365Z,84.1
2017-07-08T11:02:27.943Z,84.3
2017-07-08T11:03:26.887Z,84.9
2017-07-08T11:04:26.202Z,83.7
2017-07-08T11:05:26.014Z,81.8
2017-07-08T11:06:25.330Z,80.8
2017-07-08T11:07:24.514Z,79.3
2017-07-08T11:08:24.345Z,80
2017-07-08T11:09:23.405Z,80.6
2017-07-08T11:10:22.959Z,79.7
2017-07-08T11:11:22.397Z,80.4
2017-07-08T11:12:21.840Z,79.8
2017-07-08T11:13:20.913Z,79.8
2017-07-08T11:13:51.558Z,79.8
2017-07-08T11:14:21.810Z,78.2
2017-07-08T11:15:19.682Z,78.2
2017-07-08T11:16:19.384Z,78.2
2017-07-08T11:17:18.715Z,77.6
2017-07-08T11:18:18.409Z,77.1
2017-07-08T11:19:17.606Z,76.7
2017-07-08T11:20:17.167Z,75.6
2017-07-08T11:21:17.195Z,75.7
2017-07-08T11:22:16.022Z,76.3
2017-07-08T11:23:15.210Z,73.3
2017-07-08T11:24:14.777Z,73.1
2017-07-08T11:24:45.022Z,73.1
2017-07-08T11:26:13.527Z,74.9
2017-07-08T11:27:13.107Z,70.2
2017-07-08T11:28:12.410Z,74.2
2017-07-08T11:29:11.991Z,69.9
2017-07-08T11:30:11.198Z,66.4
2017-07-08T11:31:10.651Z,70
2017-07-08T11:32:10.495Z,70.3
2017-07-08T11:33:09.556Z,70.3
2017-07-08T11:34:09.378Z,70.3
2017-07-08T11:35:08.193Z,66.8
2017-07-08T11:36:08.011Z,64.8
2017-07-08T11:37:07.458Z,67.6
2017-07-08T11:38:07.157Z,65.1
2017-07-08T11:39:06.088Z,64.4
2017-07-08T11:40:06.026Z,62.6
2017-07-08T11:41:05.230Z,63.6
2017-07-08T11:42:04.677Z,63.3
2017-07-08T11:43:03.991Z,64
2017-07-08T11:44:03.549Z,64.6
2017-07-08T11:45:02.746Z,63.1
2017-07-08T11:46:02.373Z,62.1
2017-07-08T11:47:02.081Z,60.5
2017-07-08T11:48:01.149Z,61.2
2017-07-08T11:49:00.727Z,59.7
2017-07-08T11:50:01.006Z,60.8
2017-07-08T11:50:59.701Z,60.8
2017-07-08T11:51:58.901Z,60.8
2017-07-08T11:52:58.615Z,59.4
2017-07-08T11:53:57.802Z,59
2017-07-08T11:54:57.631Z,57.8
2017-07-08T11:55:56.960Z,58.2
2017-07-08T11:56:56.417Z,60
2017-07-08T11:57:56.120Z,58.6
2017-07-08T11:58:55.215Z,58.6
2017-07-08T11:59:54.846Z,57.5
2017-07-08T12:00:54.169Z,60.7
2017-07-08T12:01:53.619Z,59.2
2017-07-08T12:02:53.181Z,58.8
2017-07-08T12:03:52.628Z,58.6
2017-07-08T12:04:51.692Z,58.1
2017-07-08T12:05:51.520Z,58.2
2017-07-08T12:06:50.710Z,59.2
2017-07-08T12:07:50.532Z,56.6
2017-07-08T12:09:49.371Z,59.6
2017-07-08T12:10:48.837Z,57
2017-07-08T12:11:48.033Z,57.4
2017-07-08T12:12:47.727Z,54.9
2017-07-08T12:13:47.177Z,58.2
2017-07-08T12:14:46.624Z,55.4
2017-07-08T12:16:45.590Z,55.7
2017-07-08T12:17:44.925Z,55.9
2017-07-08T12:18:44.377Z,55.8
2017-07-08T12:19:43.948Z,54.5
2017-07-08T12:20:43.529Z,53.7
2017-07-08T12:21:42.603Z,55.4
2017-07-08T12:22:42.306Z,56.2
2017-07-08T12:23:41.626Z,53.8
2017-07-08T12:24:41.074Z,52.4
2017-07-08T12:25:40.776Z,53
2017-07-08T12:26:40.346Z,53
2017-07-08T12:27:39.656Z,53
2017-07-08T12:28:39.099Z,53.6
2017-07-08T12:29:38.679Z,53.3
2017-07-08T12:30:38.379Z,55.2
2017-07-08T12:31:37.196Z,53.2
2017-07-08T12:32:36.512Z,54.9
2017-07-08T12:33:36.581Z,54.9
2017-07-08T12:34:36.021Z,50.5
2017-07-08T12:35:35.731Z,52.4
2017-07-08T12:36:35.059Z,50.7
2017-07-08T12:37:34.250Z,50.3
2017-07-08T12:38:33.573Z,49.6
2017-07-08T12:39:33.384Z,51.4
2017-07-08T12:40:32.866Z,49.2
2017-07-08T12:41:32.108Z,50.1
2017-07-08T12:42:02.867Z,50.1
2017-07-08T12:43:31.381Z,50.6
2017-07-08T12:45:30.223Z,50.2
2017-07-08T12:46:29.544Z,50.3
2017-07-08T12:47:29.170Z,51.2
2017-07-08T12:48:28.746Z,51.2
2017-07-08T12:49:28.455Z,50.9
2017-07-08T12:50:27.342Z,49.1
2017-07-08T12:51:27.307Z,50.3
2017-07-08T12:52:26.500Z,49.3
2017-07-08T12:53:26.073Z,49.4
2017-07-08T12:53:56.451Z,49.4
2017-07-08T12:54:27.218Z,49.4
2017-07-08T12:55:24.898Z,51.2
2017-07-08T12:57:23.977Z,49.8
2017-07-08T12:58:23.667Z,51.6
2017-07-08T12:59:22.869Z,52.5
2017-07-08T13:00:22.571Z,51
2017-07-08T13:01:22.696Z,49.1
2017-07-08T13:02:21.386Z,51.5
2017-07-08T13:03:20.834Z,51.5
2017-07-08T13:04:20.532Z,48.6
2017-07-08T13:05:20.104Z,50.3
2017-07-08T13:06:19.553Z,50.1
2017-07-08T13:07:18.621Z,50.3
2017-07-08T13:08:18.568Z,51
2017-07-08T13:09:17.770Z,52.8
2017-07-08T13:10:17.722Z,53.4
2017-07-08T13:11:17.054Z,54.3
2017-07-08T13:12:16.626Z,54.5
2017-07-08T13:13:16.076Z,54.9